Main page
METAR-TAF:

METAR-TAF

Airports :

Al Qaisumah/Hafr Al Batin Airport

Qaisumah, Saudi Arabia

latitude: 28-19N, longitude: 046-07E, elevation: 358 m

Current weather observation

The report was made 34 minutes ago, at 04:00 UTC
Wind 3 kt from the East
Temperature 5°C
Humidity 70%
Pressure 1024 hPa
Visibility 10 km or more
no clouds below 1500 m and no cumulonimbus

METAR: OEPA 210400Z 10003KT CAVOK 05/00 Q1024 NOSIG

Time: 07:34 (04:34 UTC)

Forecast

The report was made 5 hours and 34 minutes ago, at 23:00 UTC
Forecast valid from 21 at 00 UTC to 22 at 06 UTC
Wind 3 kt from variable directions
Visibility 10 km or more
no clouds below 1500 m and no cumulonimbus
Becoming
from 21 at 06 UTC to 21 at 08 UTC
Wind 10 kt from the East/Southeast

TAF: OEPA 202300Z 2100/2206 VRB03KT CAVOK BECMG 2106/2108 11010KT

Weather observations and forecasts of more than 4000 airports (METAR and TAF reports).

The available stations are represented by yellow and red dots on the map.

Hover mouse over dot to see the name of the station.

Then click to see weather observations and forecasts.

To change the map : click on the green buttons with a black cross to zoom in, on the green button with a dash to zoom out, or on the green arrows for adjacent maps.


METAR-TAF: